• Join FlightAware (Why Join?)
  • Login
  • US Flag 
03:26PM EDT


 

Airport Tracker/Info


-or-


 

Live Flight TrackerFlight Track Log ✈ N102RM ✈ 14-May-2013 ✈ KCPS - KLXT

Flight Track Log - Related Links

Times and Time Zones

All times are in EDT time to prevent confusion due to time zone crossing. See the N102RM flight status page for this flight to view local times or setup timezone preferences in your user account.

Time Position Orientation Groundspeed Altitude Reporting Facility
EDT Latitude Longitude Course Direction KTS MPH feet Rate Location/Type
02:46PM 38.5500 -90.2000 278° West 91 105 2,000  Level Gateway (St. Louis) TRACON
02:47PM 38.5350 -90.2203 227° Southwest 94 108 2,700 720 Climbing Kansas City Center
02:48PM 38.5325 -90.2578 265° West 104 120 3,500 780 Climbing Kansas City Center
02:49PM 38.5347 -90.2956 274° West 105 121 4,300 480 Climbing Kansas City Center
02:50PM 38.5411 -90.3372 281° West 111 128 4,600 180 Climbing Kansas City Center
02:51PM 38.6035 -90.4574 278° West  Level Estimated
02:51PM 38.5469 -90.3872 278° West 128 147 4,700  Level Kansas City Center
02:52PM 38.5525 -90.4311 279° West 129 148 5,400 720 Climbing Kansas City Center
02:53PM 38.5639 -90.4803 287° West 121 139 6,200 540 Climbing Kansas City Center
02:54PM 38.5689 -90.5236 278° West 122 140 6,600 180 Climbing Kansas City Center
02:55PM 38.5742 -90.5711 278° West 131 151 6,600  Level Kansas City Center
02:56PM 38.5803 -90.6219 279° West 141 162 6,600  Level Kansas City Center
02:57PM 38.5850 -90.6731 277° West 144 166 6,600  Level Kansas City Center
02:58PM 38.5897 -90.7244 277° West 145 167 6,600  Level Kansas City Center
02:59PM 38.5950 -90.7744 278° West 143 165 6,600  Level Kansas City Center
03:00PM 38.6011 -90.8356 277° West 145 167 6,600 -60 Level Kansas City Center
03:01PM 38.6069 -90.8883 278° West 147 169 6,500  Descending Kansas City Center
03:02PM 38.6128 -90.9400 278° West 148 170 6,600  Climbing Kansas City Center
03:03PM 38.6192 -90.9889 280° West 143 165 6,600  Level Kansas City Center
03:04PM 38.6247 -91.0392 278° West 143 165 6,600  Level Kansas City Center
03:05PM 38.6300 -91.0900 278° West 144 166 6,600  Level Kansas City Center
03:06PM 38.6378 -91.1514 279° West 145 167 6,600 -60 Level Kansas City Center
03:07PM 38.6433 -91.2033 278° West 147 169 6,500  Descending Kansas City Center
03:08PM 38.6486 -91.2547 278° West 146 168 6,600  Climbing Kansas City Center
03:09PM 38.6536 -91.3056 277° West 145 167 6,600  Level Kansas City Center
03:10PM 38.6614 -91.3567 281° West 146 168 6,600  Level Kansas City Center
03:11PM 38.6681 -91.4150 278° West 146 168 6,600  Level Kansas City Center
03:13PM 38.6739 -91.4664 278° West 146 168 6,600 -60 Level Kansas City Center
03:14PM 38.6800 -91.5169 279° West 145 167 6,500 -60 Descending Kansas City Center
03:15PM 38.6856 -91.5681 278° West 145 167 6,500  Level Kansas City Center
03:16PM 38.6933 -91.6294 279° West 145 167 6,500  Level Kansas City Center
03:17PM 38.6997 -91.6789 279° West 143 165 6,600  Climbing Kansas City Center
03:18PM 38.7028 -91.7286 275° West 141 162 6,600  Level Kansas City Center
03:19PM 38.7075 -91.7792 277° West 142 163 6,600  Level Kansas City Center
03:20PM 38.7128 -91.8297 278° West 143 165 6,600  Level Kansas City Center
03:21PM 38.7172 -91.8803 276° West 143 165 6,600  Level Kansas City Center
03:22PM 38.7219 -91.9294 277° West 142 163 6,600  Level Kansas City Center
03:23PM 38.7283 -91.9900 278° West 143 165 6,600  Level Kansas City Center
03:24PM 38.7350 -92.0400 280° West 142 163 6,600 -60 Level Kansas City Center
03:25PM 38.7403 -92.0908 278° West 143 165 6,500 -60 Descending Kansas City Center
03:26PM 38.7467 -92.1414 279° West 143 165 6,500  Level Kansas City Center
03:27PM 38.7533 -92.1914 280° West 142 163 6,600  Climbing Kansas City Center
03:28PM 38.7569 -92.2422 275° West 143 165 6,600 -60 Level Kansas City Center
03:29PM 38.7633 -92.3011 278° West 141 162 6,500  Descending Kansas City Center
03:30PM 38.7686 -92.3508 278° West 141 162 6,600  Climbing Kansas City Center
03:31PM 38.7736 -92.4008 277° West 142 163 6,600  Level Kansas City Center
03:32PM 38.7781 -92.4522 276° West 144 166 6,600  Level Kansas City Center
03:33PM 38.7836 -92.5017 278° West 143 165 6,600  Level Kansas City Center
03:34PM 38.7881 -92.5508 277° West 141 162 6,600  Level Kansas City Center
03:35PM 38.7950 -92.6108 278° West 141 162 6,600  Level Kansas City Center
03:36PM 38.7997 -92.6614 277° West 142 163 6,600  Level Kansas City Center
03:37PM 38.8064 -92.7122 280° West 144 166 6,600  Level Kansas City Center
03:38PM 38.8128 -92.7614 279° West 142 163 6,600  Level Kansas City Center
03:39PM 38.8169 -92.8150 276° West 145 167 6,600  Level Kansas City Center
03:40PM 38.8206 -92.8656 275° West 145 167 6,600  Level Kansas City Center
03:41PM 38.8253 -92.9258 276° West 144 166 6,600  Level Kansas City Center
03:43PM 38.8306 -92.9750 278° West 142 163 6,600  Level Kansas City Center
03:44PM 38.8356 -93.0244 277° West 140 161 6,600 -60 Level Kansas City Center
03:45PM 38.8422 -93.0717 280° West 138 159 6,500 -60 Descending Kansas City Center
03:46PM 38.8475 -93.1217 278° West 141 162 6,500  Level Kansas City Center
03:47PM 38.8522 -93.1711 277° West 140 161 6,500  Level Kansas City Center
03:48PM 38.8572 -93.2206 277° West 140 161 6,500  Level Kansas City Center
03:49PM 38.8628 -93.2814 277° West 142 163 6,500  Level Kansas City Center
03:50PM 38.8683 -93.3303 278° West 140 161 6,500  Level Kansas City Center
03:51PM 38.8731 -93.3800 277° West 140 161 6,500  Level Kansas City Center
03:52PM 38.8778 -93.4300 277° West 140 161 6,500  Level Kansas City Center
03:53PM 38.8814 -93.4808 275° West 141 162 6,500  Level Kansas City Center
03:54PM 38.8867 -93.5311 278° West 142 163 6,500  Level Kansas City Center
03:55PM 38.8925 -93.5906 277° West 140 161 6,500  Level Kansas City Center
03:56PM 38.8981 -93.6383 279° West 136 157 6,500  Level Kansas City Center
03:57PM 38.9014 -93.6889 275° West 141 162 6,500 -60 Level Kansas City Center
03:58PM 38.9053 -93.7383 276° West 139 160 6,400 -60 Descending Kansas City Center
03:59PM 38.9128 -93.7886 281° West 136 157 6,400  Level Kansas City Center
04:00PM 38.9167 -93.8344 276° West 134 154 6,500 60 Climbing Kansas City Center
04:02PM 38.9167 -93.9025 270° West  Level FlightAware Approximate